Time;durP1;ratioP1;P1;durP2;ratioP2;P2;SDS_P1;SDS_P2;PMS_P1;PMS_P2;Temp;Humidity;BMP_temperature;BMP_pressure;BME280_temperature;BME280_humidity;BME280_pressure;Samples;Min_cycle;Max_cycle;Signal;HPM_P1;HPM_P2
2023/04/17 00:00:27;;;;;;;0.4;0.4;;;;;;;;;;;;;
2023/04/17 00:02:52;;;;;;;1;0.5;;;;;;;;;;;;;
2023/04/17 00:05:21;;;;;;;0.7;0.5;;;;;;;;;;;;;
2023/04/17 00:07:45;;;;;;;0.9;0.6;;;;;;;;;;;;;
2023/04/17 00:10:13;;;;;;;0.6;0.5;;;;;;;;;;;;;
2023/04/17 00:12:38;;;;;;;0.5;0.4;;;;;;;;;;;;;
2023/04/17 00:15:03;;;;;;;0.7;0.4;;;;;;;;;;;;;
2023/04/17 00:17:29;;;;;;;1.4;0.4;;;;;;;;;;;;;
2023/04/17 00:19:54;;;;;;;0.5;0.3;;;;;;;;;;;;;
2023/04/17 00:22:19;;;;;;;0.7;0.5;;;;;;;;;;;;;
2023/04/17 00:24:44;;;;;;;1;0.6;;;;;;;;;;;;;
2023/04/17 00:27:09;;;;;;;0.8;0.3;;;;;;;;;;;;;
2023/04/17 00:29:36;;;;;;;0.4;0.3;;;;;;;;;;;;;
2023/04/17 00:32:00;;;;;;;0.7;0.3;;;;;;;;;;;;;
2023/04/17 00:34:27;;;;;;;0.4;0.4;;;;;;;;;;;;;
2023/04/17 00:36:52;;;;;;;0.3;0.3;;;;;;;;;;;;;
2023/04/17 00:39:18;;;;;;;0.4;0.4;;;;;;;;;;;;;
2023/04/17 00:41:43;;;;;;;0.6;0.3;;;;;;;;;;;;;
2023/04/17 00:44:11;;;;;;;0.4;0.4;;;;;;;;;;;;;
2023/04/17 00:46:36;;;;;;;0.8;0.4;;;;;;;;;;;;;
2023/04/17 00:49:01;;;;;;;0.4;0.4;;;;;;;;;;;;;
2023/04/17 00:51:26;;;;;;;0.5;0.4;;;;;;;;;;;;;
2023/04/17 00:53:51;;;;;;;1.5;0.4;;;;;;;;;;;;;
2023/04/17 00:56:17;;;;;;;0.7;0.5;;;;;;;;;;;;;
2023/04/17 00:58:43;;;;;;;0.3;0.3;;;;;;;;;;;;;
2023/04/17 01:01:08;;;;;;;1.6;0.6;;;;;;;;;;;;;
2023/04/17 01:03:33;;;;;;;0.5;0.5;;;;;;;;;;;;;
2023/04/17 01:05:58;;;;;;;0.8;0.6;;;;;;;;;;;;;
2023/04/17 01:08:25;;;;;;;0.5;0.5;;;;;;;;;;;;;
2023/04/17 01:10:50;;;;;;;0.9;0.6;;;;;;;;;;;;;
2023/04/17 01:13:15;;;;;;;0.8;0.8;;;;;;;;;;;;;
2023/04/17 01:15:41;;;;;;;1;0.7;;;;;;;;;;;;;
2023/04/17 01:18:07;;;;;;;0.7;0.7;;;;;;;;;;;;;
2023/04/17 01:20:32;;;;;;;1;0.9;;;;;;;;;;;;;
2023/04/17 01:22:59;;;;;;;0.7;0.7;;;;;;;;;;;;;
2023/04/17 01:25:26;;;;;;;0.7;0.7;;;;;;;;;;;;;
2023/04/17 01:27:51;;;;;;;0.8;0.6;;;;;;;;;;;;;
2023/04/17 01:30:17;;;;;;;1.5;0.8;;;;;;;;;;;;;
2023/04/17 01:32:42;;;;;;;0.5;0.5;;;;;;;;;;;;;
2023/04/17 01:35:11;;;;;;;0.6;0.6;;;;;;;;;;;;;
2023/04/17 01:37:36;;;;;;;1.2;0.7;;;;;;;;;;;;;
2023/04/17 01:40:04;;;;;;;0.4;0.4;;;;;;;;;;;;;
2023/04/17 01:42:28;;;;;;;0.7;0.7;;;;;;;;;;;;;
2023/04/17 01:44:54;;;;;;;0.6;0.6;;;;;;;;;;;;;
2023/04/17 01:47:19;;;;;;;0.6;0.6;;;;;;;;;;;;;
2023/04/17 01:49:44;;;;;;;1;0.9;;;;;;;;;;;;;
2023/04/17 01:52:09;;;;;;;0.9;0.9;;;;;;;;;;;;;
2023/04/17 01:54:35;;;;;;;2;1.8;;;;;;;;;;;;;
2023/04/17 01:57:01;;;;;;;2.8;2.5;;;;;;;;;;;;;
2023/04/17 01:59:27;;;;;;;6.8;6.2;;;;;;;;;;;;;
2023/04/17 02:01:53;;;;;;;3.9;3.6;;;;;;;;;;;;;
2023/04/17 02:04:20;;;;;;;1.8;1.7;;;;;;;;;;;;;
2023/04/17 02:06:45;;;;;;;2;1.9;;;;;;;;;;;;;
2023/04/17 02:09:12;;;;;;;1.5;1.4;;;;;;;;;;;;;
2023/04/17 02:11:37;;;;;;;1.8;1.7;;;;;;;;;;;;;
2023/04/17 02:14:02;;;;;;;2.1;2;;;;;;;;;;;;;
2023/04/17 02:16:28;;;;;;;1.7;1.6;;;;;;;;;;;;;
2023/04/17 02:18:55;;;;;;;1.4;1.3;;;;;;;;;;;;;
2023/04/17 02:21:20;;;;;;;1;1;;;;;;;;;;;;;
2023/04/17 02:23:45;;;;;;;1.2;1.1;;;;;;;;;;;;;
2023/04/17 02:26:11;;;;;;;1.5;1.4;;;;;;;;;;;;;
2023/04/17 02:28:36;;;;;;;1.3;1.2;;;;;;;;;;;;;
2023/04/17 02:31:01;;;;;;;1.2;1.1;;;;;;;;;;;;;
2023/04/17 02:33:27;;;;;;;1.1;0.8;;;;;;;;;;;;;
2023/04/17 02:35:54;;;;;;;1.1;1;;;;;;;;;;;;;
2023/04/17 02:38:20;;;;;;;0.8;0.8;;;;;;;;;;;;;
2023/04/17 02:40:45;;;;;;;0.8;0.8;;;;;;;;;;;;;
2023/04/17 02:43:12;;;;;;;0.8;0.8;;;;;;;;;;;;;
2023/04/17 02:45:37;;;;;;;0.7;0.7;;;;;;;;;;;;;
2023/04/17 02:48:02;;;;;;;0.8;0.6;;;;;;;;;;;;;
2023/04/17 02:50:48;;;;;;;0.5;0.5;;;;;;;;;;;;;
2023/04/17 02:53:13;;;;;;;0.6;0.6;;;;;;;;;;;;;
2023/04/17 02:55:38;;;;;;;0.8;0.7;;;;;;;;;;;;;
2023/04/17 02:58:04;;;;;;;0.8;0.8;;;;;;;;;;;;;
2023/04/17 03:00:29;;;;;;;1.2;1.1;;;;;;;;;;;;;
2023/04/17 03:02:55;;;;;;;2.2;1.2;;;;;;;;;;;;;
2023/04/17 03:05:22;;;;;;;1.7;1.4;;;;;;;;;;;;;
2023/04/17 03:07:48;;;;;;;1.5;1.4;;;;;;;;;;;;;
2023/04/17 03:10:13;;;;;;;2.2;1.5;;;;;;;;;;;;;
2023/04/17 03:12:39;;;;;;;1.6;1.5;;;;;;;;;;;;;
2023/04/17 03:15:03;;;;;;;2.3;1.8;;;;;;;;;;;;;
2023/04/17 03:17:30;;;;;;;2.7;1.8;;;;;;;;;;;;;
2023/04/17 03:19:55;;;;;;;2.3;2.1;;;;;;;;;;;;;
2023/04/17 03:22:20;;;;;;;3.2;2.7;;;;;;;;;;;;;
2023/04/17 03:24:45;;;;;;;5.6;3.2;;;;;;;;;;;;;
2023/04/17 03:27:11;;;;;;;4.7;3.5;;;;;;;;;;;;;
2023/04/17 03:29:36;;;;;;;4.7;3.7;;;;;;;;;;;;;
2023/04/17 03:32:03;;;;;;;7.1;4.1;;;;;;;;;;;;;
2023/04/17 03:34:28;;;;;;;6.7;4.7;;;;;;;;;;;;;
2023/04/17 03:36:55;;;;;;;5.1;3.8;;;;;;;;;;;;;
2023/04/17 03:39:20;;;;;;;4.3;3.7;;;;;;;;;;;;;
2023/04/17 03:41:45;;;;;;;4.4;3.3;;;;;;;;;;;;;
2023/04/17 03:44:11;;;;;;;4.1;3.3;;;;;;;;;;;;;
2023/04/17 03:46:38;;;;;;;3.7;3.3;;;;;;;;;;;;;
2023/04/17 03:49:03;;;;;;;3.1;2.8;;;;;;;;;;;;;
2023/04/17 03:51:28;;;;;;;3;2.7;;;;;;;;;;;;;
2023/04/17 03:53:53;;;;;;;2.4;2.2;;;;;;;;;;;;;
2023/04/17 03:56:19;;;;;;;2.6;1.8;;;;;;;;;;;;;
2023/04/17 03:58:44;;;;;;;2.4;1.7;;;;;;;;;;;;;
2023/04/17 04:02:35;;;;;;;1.7;1.6;;;;;;;4.46;98.89355;939.6498;;;;
2023/04/17 04:05:11;;;;;;;1.6;1.4;;;;;;;4.38;98.56152;939.6367;;;;
2023/04/17 04:07:41;;;;;;;2.7;1.6;;;;;;;4.29;98.33887;939.7053;;;;
2023/04/17 04:10:06;;;;;;;11.9;8.9;;;;;;;4.36;98.10547;939.7178;;;;
2023/04/17 04:12:31;;;;;;;12.6;9.4;;;;;;;4.34;98.28125;939.7171;;;;
2023/04/17 04:15:00;;;;;;;2.4;2.1;;;;;;;4.35;98.68652;939.7206;;;;
2023/04/17 04:17:25;;;;;;;1.7;1.5;;;;;;;4.27;97.69043;939.7693;;;;
2023/04/17 04:19:55;;;;;;;1.6;1.3;;;;;;;4.34;97.85352;939.7528;;;;
2023/04/17 04:22:21;;;;;;;1.5;1.4;;;;;;;4.41;97.92871;939.8077;;;;
2023/04/17 04:24:46;;;;;;;2;1.5;;;;;;;4.41;97.79395;939.7809;;;;
2023/04/17 04:27:16;;;;;;;2.2;0.9;;;;;;;4.43;96.79395;939.8231;;;;
2023/04/17 04:29:44;;;;;;;0.9;0.9;;;;;;;4.41;96.2832;939.8586;;;;
2023/04/17 04:32:08;;;;;;;1.9;1.4;;;;;;;4.42;95.94727;939.8361;;;;
2023/04/17 04:34:30;;;;;;;1.1;1;;;;;;;4.4;96.29199;939.7478;;;;
2023/04/17 04:36:58;;;;;;;1.4;1.3;;;;;;;4.49;96.70703;939.8725;;;;
2023/04/17 04:39:24;;;;;;;1.5;1.4;;;;;;;4.51;96.5625;939.855;;;;
2023/04/17 04:41:52;;;;;;;2.2;2;;;;;;;4.43;96.63574;939.9604;;;;
2023/04/17 04:44:22;;;;;;;1.4;1.3;;;;;;;4.49;97.45898;939.9142;;;;
2023/04/17 04:46:54;;;;;;;2.2;2;;;;;;;4.48;97.90723;939.8744;;;;
2023/04/17 04:49:17;;;;;;;1.4;1.3;;;;;;;4.53;97.48047;939.8786;;;;
2023/04/17 04:51:44;;;;;;;1.3;1.2;;;;;;;4.46;97.11523;939.8831;;;;
2023/04/17 04:54:09;;;;;;;1.5;1.4;;;;;;;4.47;97.17578;939.8806;;;;
2023/04/17 04:56:35;;;;;;;1.3;1;;;;;;;4.51;96.39551;939.9246;;;;
2023/04/17 04:59:00;;;;;;;1.5;1.2;;;;;;;4.45;95.99902;939.9128;;;;
2023/04/17 05:01:30;;;;;;;1.6;1.5;;;;;;;4.5;96.3125;939.9146;;;;
2023/04/17 05:03:59;;;;;;;1.3;1.1;;;;;;;4.52;96.16113;939.9603;;;;
2023/04/17 05:06:32;;;;;;;1.2;1;;;;;;;4.55;95.88574;939.8872;;;;
2023/04/17 05:08:59;;;;;;;1.2;1.1;;;;;;;4.54;95.82715;939.8773;;;;
2023/04/17 05:11:24;;;;;;;1.2;1.1;;;;;;;4.55;95.26855;939.8889;;;;
2023/04/17 05:13:52;;;;;;;1.3;1.2;;;;;;;4.5;95.13281;939.932;;;;
2023/04/17 05:16:17;;;;;;;1.3;1.2;;;;;;;4.45;95.44727;939.9801;;;;
2023/04/17 05:18:46;;;;;;;1.3;1.2;;;;;;;4.47;95.88086;939.9537;;;;
2023/04/17 05:21:09;;;;;;;1.5;1.4;;;;;;;4.51;95.87988;939.9254;;;;
2023/04/17 05:23:37;;;;;;;3;2.1;;;;;;;4.41;95.93457;939.9422;;;;
2023/04/17 05:26:02;;;;;;;3.1;2.3;;;;;;;4.38;96.17383;939.9653;;;;
2023/04/17 05:28:28;;;;;;;3;2;;;;;;;4.52;96.28516;939.9352;;;;
2023/04/17 05:30:57;;;;;;;2.1;1.7;;;;;;;4.54;95.69238;939.95;;;;
2023/04/17 05:33:22;;;;;;;2.6;2.1;;;;;;;4.55;95.67383;939.8826;;;;
2023/04/17 05:35:50;;;;;;;1.7;1.4;;;;;;;4.59;94.79297;939.8997;;;;
2023/04/17 05:38:19;;;;;;;1.6;1.5;;;;;;;4.76;95.0332;939.9144;;;;
2023/04/17 05:40:44;;;;;;;2.6;2.4;;;;;;;4.86;95.70898;939.9638;;;;
2023/04/17 05:43:10;;;;;;;2.9;2.6;;;;;;;4.88;96.23145;939.988;;;;
2023/04/17 05:45:35;;;;;;;2.1;1.9;;;;;;;4.9;95.92188;940.0385;;;;
2023/04/17 05:48:00;;;;;;;2.2;2;;;;;;;4.89;95.21973;940.0255;;;;
2023/04/17 05:50:27;;;;;;;3.7;3.4;;;;;;;4.95;96.17773;940.002;;;;
2023/04/17 05:52:52;;;;;;;3.3;3;;;;;;;4.98;96.35547;940.0023;;;;
2023/04/17 05:55:20;;;;;;;2;1.8;;;;;;;5;95.80957;940.1082;;;;
2023/04/17 05:57:45;;;;;;;1.8;1.7;;;;;;;5.03;95.93945;940.1141;;;;
2023/04/17 06:00:12;;;;;;;2.3;2;;;;;;;5.09;96.08691;940.0979;;;;
2023/04/17 06:02:39;;;;;;;2.7;2.5;;;;;;;5.17;96.3418;940.1019;;;;
2023/04/17 06:05:08;;;;;;;2.6;2.4;;;;;;;5.3;96.06543;940.0109;;;;
2023/04/17 06:07:39;;;;;;;2.9;2.5;;;;;;;5.43;95.76855;940.1022;;;;
2023/04/17 06:10:03;;;;;;;1.7;1.6;;;;;;;5.49;94.23535;940.135;;;;
2023/04/17 06:12:31;;;;;;;2.7;2;;;;;;;5.56;94.46777;940.1846;;;;
2023/04/17 06:14:57;;;;;;;1.8;1.5;;;;;;;5.49;92.62109;940.2455;;;;
2023/04/17 06:17:23;;;;;;;1.6;1.5;;;;;;;5.56;91.55566;940.2422;;;;
2023/04/17 06:19:48;;;;;;;2.1;1.8;;;;;;;5.69;91.31152;940.2456;;;;
2023/04/17 06:22:17;;;;;;;1.8;1.7;;;;;;;5.86;91.84375;940.176;;;;
2023/04/17 06:24:42;;;;;;;1.9;1.5;;;;;;;5.89;90.4375;940.1294;;;;
2023/04/17 06:27:09;;;;;;;1.8;1.7;;;;;;;5.77;90.21094;940.2222;;;;
2023/04/17 06:29:34;;;;;;;1.3;1.2;;;;;;;5.62;89.93066;940.2522;;;;
2023/04/17 06:32:01;;;;;;;2.5;2;;;;;;;5.69;90.56641;940.2709;;;;
2023/04/17 06:34:26;;;;;;;2.9;2.1;;;;;;;5.75;89.92285;940.2957;;;;
2023/04/17 06:36:52;;;;;;;2.2;1.8;;;;;;;5.79;90.46387;940.2503;;;;
2023/04/17 06:39:17;;;;;;;2.6;1.7;;;;;;;5.97;90.26465;940.2855;;;;
2023/04/17 06:41:47;;;;;;;1.7;1.6;;;;;;;6.16;90.37012;940.2573;;;;
2023/04/17 06:44:11;;;;;;;2.1;1.9;;;;;;;6.29;89.58496;940.2827;;;;
2023/04/17 06:46:41;;;;;;;1.6;1.5;;;;;;;6.29;89.55078;940.324;;;;
2023/04/17 06:49:10;;;;;;;1.7;1.5;;;;;;;6.36;89.82617;940.3924;;;;
2023/04/17 06:51:35;;;;;;;1.4;1.3;;;;;;;6.48;88.96875;940.415;;;;
2023/04/17 06:54:01;;;;;;;1.4;1.3;;;;;;;6.64;88.10645;940.4117;;;;
2023/04/17 06:56:26;;;;;;;1.6;1.5;;;;;;;6.76;87.25;940.4291;;;;
2023/04/17 06:58:52;;;;;;;1.7;1.6;;;;;;;6.74;86.38574;940.3766;;;;
2023/04/17 07:01:17;;;;;;;1.8;1.5;;;;;;;6.54;86.67383;940.3179;;;;
2023/04/17 07:03:44;;;;;;;1.4;1.3;;;;;;;6.57;87.70898;940.3945;;;;
2023/04/17 07:06:09;;;;;;;1.1;1;;;;;;;6.56;88.11426;940.418;;;;
2023/04/17 07:08:35;;;;;;;2.3;1.5;;;;;;;6.35;87.30273;940.3928;;;;
2023/04/17 07:11:01;;;;;;;1.5;1.4;;;;;;;6.26;89.22656;940.4297;;;;
2023/04/17 07:13:30;;;;;;;1.8;1.7;;;;;;;6.35;89.3584;940.4354;;;;
2023/04/17 07:15:52;;;;;;;2;1.8;;;;;;;6.33;89.3457;940.4026;;;;
2023/04/17 07:18:20;;;;;;;4.6;2.9;;;;;;;6.42;90.5498;940.4109;;;;
2023/04/17 07:20:44;;;;;;;3;2.3;;;;;;;6.47;89.61328;940.4678;;;;
2023/04/17 07:23:11;;;;;;;3.8;2.2;;;;;;;6.58;89.625;940.4771;;;;
2023/04/17 07:25:37;;;;;;;4.9;2.6;;;;;;;6.66;90.17188;940.4662;;;;
2023/04/17 07:28:02;;;;;;;2.3;1.7;;;;;;;6.71;89.57227;940.4573;;;;
2023/04/17 07:30:27;;;;;;;1.8;1.5;;;;;;;6.67;88.33105;940.4444;;;;
2023/04/17 07:32:56;;;;;;;1.4;1.3;;;;;;;6.83;88.13574;940.5075;;;;
2023/04/17 07:35:21;;;;;;;1.8;1.4;;;;;;;6.75;86.34277;940.4236;;;;
2023/04/17 07:37:47;;;;;;;1.2;1.1;;;;;;;6.66;87.69336;940.4369;;;;
2023/04/17 07:40:13;;;;;;;1.5;1.4;;;;;;;6.77;87.58887;940.488;;;;
2023/04/17 07:42:39;;;;;;;1.4;1.1;;;;;;;6.83;87.18555;940.4702;;;;
2023/04/17 07:45:04;;;;;;;1.8;1.2;;;;;;;6.89;87.47949;940.4511;;;;
2023/04/17 07:47:31;;;;;;;0.9;0.9;;;;;;;6.94;86.36914;940.4915;;;;
2023/04/17 07:49:56;;;;;;;1.8;1.6;;;;;;;6.9;87.90039;940.4981;;;;
2023/04/17 07:52:22;;;;;;;0.7;0.7;;;;;;;6.95;86.60938;940.49;;;;
2023/04/17 07:54:47;;;;;;;1.2;1.1;;;;;;;6.92;86.84082;940.4916;;;;
2023/04/17 07:57:16;;;;;;;1.6;1.3;;;;;;;7.46;87.48242;940.4373;;;;
2023/04/17 07:59:39;;;;;;;1.6;1.4;;;;;;;7.87;86.43164;940.4833;;;;
2023/04/17 08:02:05;;;;;;;1.3;1;;;;;;;8.18;82.96191;940.4572;;;;
2023/04/17 08:04:31;;;;;;;1;0.9;;;;;;;8.65;82.84766;940.4507;;;;
2023/04/17 08:06:57;;;;;;;0.9;0.9;;;;;;;8.84;78.80371;940.5199;;;;
2023/04/17 08:09:22;;;;;;;1.2;1.1;;;;;;;9.18;80.03711;940.4963;;;;
2023/04/17 08:11:50;;;;;;;1.7;1.3;;;;;;;9.35;79.18066;940.4742;;;;
2023/04/17 08:14:16;;;;;;;5.4;1.4;;;;;;;9.46;76.96777;940.4843;;;;
2023/04/17 08:16:43;;;;;;;2.5;1.9;;;;;;;9.84;75.47559;940.4919;;;;
2023/04/17 08:19:09;;;;;;;2.1;1.5;;;;;;;10.8;73.64355;940.5002;;;;
2023/04/17 08:21:35;;;;;;;1.2;0.6;;;;;;;11.83;69.67285;940.4584;;;;
2023/04/17 08:24:00;;;;;;;1;1;;;;;;;12.36;68.90918;940.4307;;;;
2023/04/17 08:26:27;;;;;;;1.1;1;;;;;;;12.58;65.93945;940.4059;;;;
2023/04/17 08:28:53;;;;;;;1.1;1;;;;;;;12.7;65.6123;940.4307;;;;
2023/04/17 08:31:18;;;;;;;0.6;0.5;;;;;;;12.79;63.89453;940.4255;;;;
2023/04/17 08:33:43;;;;;;;0.8;0.5;;;;;;;12.24;62.36816;940.3997;;;;
2023/04/17 08:36:10;;;;;;;0.3;0.3;;;;;;;11.72;67.74219;940.4536;;;;
2023/04/17 08:38:35;;;;;;;1.4;0.4;;;;;;;11.59;64.50684;940.52;;;;
2023/04/17 08:41:01;;;;;;;0.5;0.4;;;;;;;10.31;68.81152;940.4487;;;;
2023/04/17 08:43:26;;;;;;;0.7;0.2;;;;;;;10.5;70.88672;940.4397;;;;
2023/04/17 08:45:52;;;;;;;0.3;0.3;;;;;;;10.91;70.34766;940.4006;;;;
2023/04/17 08:48:17;;;;;;;1.6;0.3;;;;;;;10.63;69.40039;940.4337;;;;
2023/04/17 08:50:43;;;;;;;1.5;0.4;;;;;;;10.69;67.59277;940.3603;;;;
2023/04/17 08:53:11;;;;;;;0.4;0.4;;;;;;;11.34;67.55762;940.366;;;;
2023/04/17 08:55:36;;;;;;;0.4;0.4;;;;;;;11.65;63.63477;940.2928;;;;
2023/04/17 08:58:02;;;;;;;0.9;0.9;;;;;;;12.08;63.46875;940.2753;;;;
2023/04/17 09:00:26;;;;;;;1.3;0.8;;;;;;;11.88;63.66797;940.3143;;;;
2023/04/17 09:02:53;;;;;;;0.5;0.5;;;;;;;11.97;64.21973;940.3484;;;;
2023/04/17 09:05:21;;;;;;;0.7;0.7;;;;;;;12.04;64.12695;940.3102;;;;
2023/04/17 09:07:46;;;;;;;1.5;0.9;;;;;;;11.73;63.53223;940.3524;;;;
2023/04/17 09:10:11;;;;;;;0.9;0.7;;;;;;;11.8;64.40137;940.3733;;;;
2023/04/17 09:12:40;;;;;;;0.3;0.3;;;;;;;11.81;62.46582;940.2736;;;;
2023/04/17 09:15:01;;;;;;;0.3;0.3;;;;;;;11.71;60.59863;940.3347;;;;
2023/04/17 09:17:30;;;;;;;0.5;0.5;;;;;;;11.74;62.03223;940.2942;;;;
2023/04/17 09:19:55;;;;;;;0.7;0.7;;;;;;;11.83;62.16113;940.3419;;;;
2023/04/17 09:22:25;;;;;;;0.9;0.6;;;;;;;11.3;65.51563;940.3567;;;;
2023/04/17 09:24:51;;;;;;;0.7;0.7;;;;;;;11.22;66.49805;940.3369;;;;
2023/04/17 09:27:16;;;;;;;0.8;0.8;;;;;;;11.5;65.56836;940.2783;;;;
2023/04/17 09:29:41;;;;;;;0.8;0.8;;;;;;;11.4;65.97656;940.3434;;;;
2023/04/17 09:32:06;;;;;;;1.3;1.2;;;;;;;11.65;64.17285;940.335;;;;
2023/04/17 09:34:33;;;;;;;1.8;0.8;;;;;;;11.91;65.11426;940.2971;;;;
2023/04/17 09:36:59;;;;;;;1;0.9;;;;;;;11.72;63.0498;940.2726;;;;
2023/04/17 09:39:25;;;;;;;1.4;1.1;;;;;;;11.98;64.08398;940.2377;;;;
2023/04/17 09:41:50;;;;;;;0.8;0.8;;;;;;;12.2;62.98145;940.2402;;;;
2023/04/17 09:44:15;;;;;;;1.1;1.1;;;;;;;12.09;64.09863;940.2562;;;;
2023/04/17 09:46:41;;;;;;;1.1;1;;;;;;;12.37;64.30078;940.2358;;;;
2023/04/17 09:49:06;;;;;;;0.8;0.8;;;;;;;12.34;65.79883;940.2374;;;;
2023/04/17 09:51:31;;;;;;;1;1;;;;;;;12.57;63.87305;940.2413;;;;
2023/04/17 09:53:57;;;;;;;1.1;1;;;;;;;12.79;64.38672;940.2346;;;;
2023/04/17 09:56:25;;;;;;;1.2;1.1;;;;;;;12.19;65.67285;940.1755;;;;
2023/04/17 09:58:49;;;;;;;1;1;;;;;;;12.17;66.77051;940.1905;;;;
2023/04/17 10:01:16;;;;;;;3;0.7;;;;;;;12.43;64.87402;940.1886;;;;
2023/04/17 10:03:41;;;;;;;1;0.9;;;;;;;12.58;65.05469;940.2692;;;;
2023/04/17 10:06:06;;;;;;;0.9;0.9;;;;;;;12.86;64.06445;940.2296;;;;
2023/04/17 10:08:31;;;;;;;0.8;0.8;;;;;;;13.16;64.63672;940.1795;;;;
2023/04/17 10:10:57;;;;;;;0.8;0.8;;;;;;;13.66;62.71094;940.139;;;;
2023/04/17 10:13:22;;;;;;;0.7;0.5;;;;;;;13.91;58.53418;940.161;;;;
2023/04/17 10:15:50;;;;;;;0.8;0.8;;;;;;;13.84;58.84668;940.1002;;;;
2023/04/17 10:18:15;;;;;;;0.6;0.6;;;;;;;13.7;60.25391;940.0319;;;;
2023/04/17 10:20:43;;;;;;;0.6;0.6;;;;;;;13.83;61.03125;940.0562;;;;
2023/04/17 10:23:06;;;;;;;0.6;0.6;;;;;;;15.03;57.6123;940.0705;;;;
2023/04/17 10:25:31;;;;;;;0.6;0.6;;;;;;;16.71;52.41406;939.9601;;;;
2023/04/17 10:27:57;;;;;;;0.7;0.7;;;;;;;15.34;57.14551;940.0394;;;;
2023/04/17 10:30:22;;;;;;;0.9;0.6;;;;;;;15.16;55.67871;940.0553;;;;
2023/04/17 10:32:46;;;;;;;0.8;0.7;;;;;;;14.73;56.80078;940.0101;;;;
2023/04/17 10:35:14;;;;;;;1;0.6;;;;;;;14.42;55.87305;939.9922;;;;
2023/04/17 10:37:41;;;;;;;0.7;0.7;;;;;;;13.88;59.32324;939.9657;;;;
2023/04/17 10:40:07;;;;;;;0.7;0.7;;;;;;;13.28;62.02441;939.9693;;;;
2023/04/17 10:42:34;;;;;;;0.7;0.7;;;;;;;13;62.38477;939.9127;;;;
2023/04/17 10:45:00;;;;;;;0.6;0.6;;;;;;;12.55;63.53613;939.9152;;;;
2023/04/17 10:47:26;;;;;;;0.8;0.8;;;;;;;11.86;64.48926;939.8897;;;;
2023/04/17 10:49:51;;;;;;;0.6;0.6;;;;;;;11.56;67.69434;939.9249;;;;
2023/04/17 10:52:18;;;;;;;1;1;;;;;;;11.18;69.71582;939.8475;;;;
2023/04/17 10:54:43;;;;;;;0.9;0.9;;;;;;;11.07;70.49902;939.9189;;;;
2023/04/17 10:57:10;;;;;;;1.4;0.9;;;;;;;10.78;71.59375;939.9001;;;;
2023/04/17 10:59:34;;;;;;;0.8;0.8;;;;;;;10.53;72.44434;939.9743;;;;
2023/04/17 11:02:02;;;;;;;0.8;0.8;;;;;;;10.45;74.70215;939.9813;;;;
2023/04/17 11:04:24;;;;;;;0.9;0.9;;;;;;;10.19;75.42188;939.9763;;;;
2023/04/17 11:06:51;;;;;;;0.8;0.8;;;;;;;10.19;74.97656;939.992;;;;
2023/04/17 11:09:16;;;;;;;0.8;0.8;;;;;;;10.27;75.41309;939.9858;;;;
2023/04/17 11:11:42;;;;;;;1;1;;;;;;;10.38;75.91113;939.945;;;;
2023/04/17 11:14:09;;;;;;;0.9;0.9;;;;;;;10.65;75.28516;939.9434;;;;
2023/04/17 11:16:34;;;;;;;1.1;1;;;;;;;10.58;76.16504;939.9565;;;;
2023/04/17 11:18:59;;;;;;;1.2;1.1;;;;;;;10.7;75.80859;939.9519;;;;
2023/04/17 11:21:25;;;;;;;1.4;1.2;;;;;;;10.73;75.37793;939.8638;;;;
2023/04/17 11:23:52;;;;;;;1;1;;;;;;;10.64;75.83203;939.8517;;;;
2023/04/17 11:26:16;;;;;;;1.2;1.1;;;;;;;10.38;76.5957;939.8965;;;;
2023/04/17 11:28:42;;;;;;;1.1;1.1;;;;;;;10.44;76.80078;939.8331;;;;
2023/04/17 11:31:10;;;;;;;1.2;1.1;;;;;;;10.34;75.81152;939.8896;;;;
2023/04/17 11:33:35;;;;;;;1.2;1.1;;;;;;;10.34;75.76758;939.8618;;;;
2023/04/17 11:36:00;;;;;;;1.3;1.2;;;;;;;10.35;78.37207;939.9073;;;;
2023/04/17 11:38:30;;;;;;;1.3;1.2;;;;;;;10.52;76.59766;939.9025;;;;
2023/04/17 11:41:00;;;;;;;1.2;1.1;;;;;;;10.49;76.33008;939.9348;;;;
2023/04/17 11:43:25;;;;;;;1.6;1.3;;;;;;;10.33;76.64355;939.9436;;;;
2023/04/17 11:45:50;;;;;;;1.4;1.3;;;;;;;10.29;79.17188;940.0012;;;;
2023/04/17 11:48:15;;;;;;;1.4;1.3;;;;;;;10.33;77.76367;940.0272;;;;
2023/04/17 11:50:41;;;;;;;1.6;1.5;;;;;;;10.37;77.33594;939.9615;;;;
2023/04/17 11:53:06;;;;;;;1.5;1.4;;;;;;;10.5;76.33301;939.8386;;;;
2023/04/17 11:55:34;;;;;;;1.4;1.3;;;;;;;10.64;77.13379;939.9409;;;;
2023/04/17 11:57:58;;;;;;;1.5;1.4;;;;;;;10.92;77.00098;939.973;;;;
2023/04/17 12:00:26;;;;;;;1.6;1.5;;;;;;;11.25;75.78906;939.9847;;;;
2023/04/17 12:02:48;;;;;;;1.6;1.5;;;;;;;11.66;74.92285;939.9124;;;;
2023/04/17 12:05:13;;;;;;;1.6;1.5;;;;;;;11.66;74.77246;939.9378;;;;
2023/04/17 12:07:38;;;;;;;1.7;1.6;;;;;;;11.64;73.77344;939.9584;;;;
2023/04/17 12:10:03;;;;;;;1.5;1.4;;;;;;;11.73;73.11523;939.9671;;;;
2023/04/17 12:12:29;;;;;;;1.4;1.3;;;;;;;11.92;70.47852;939.9109;;;;
2023/04/17 12:14:54;;;;;;;1.7;1.6;;;;;;;11.56;71.50684;939.9742;;;;
2023/04/17 12:17:22;;;;;;;1.7;1.6;;;;;;;11.3;74.33398;939.9702;;;;
2023/04/17 12:19:47;;;;;;;1.8;1.7;;;;;;;10.98;77.15918;939.8644;;;;
2023/04/17 12:22:13;;;;;;;2.1;1.9;;;;;;;11.05;76.55566;939.9706;;;;
2023/04/17 12:24:38;;;;;;;2.2;1.8;;;;;;;10.88;77.0166;939.8992;;;;
2023/04/17 12:27:04;;;;;;;2;1.8;;;;;;;11.02;75.37207;939.8811;;;;
2023/04/17 12:29:29;;;;;;;2.1;2;;;;;;;10.88;74.41016;939.9143;;;;
2023/04/17 12:31:57;;;;;;;2.3;2.1;;;;;;;10.78;74.34863;939.9974;;;;
2023/04/17 12:34:21;;;;;;;2.1;2;;;;;;;10.5;76.83496;939.9476;;;;
2023/04/17 12:36:49;;;;;;;2.7;2.5;;;;;;;10.12;79.03809;939.9586;;;;
2023/04/17 12:39:13;;;;;;;2.4;2.2;;;;;;;10.05;79.74316;939.9736;;;;
2023/04/17 12:41:39;;;;;;;2.9;2.6;;;;;;;9.81;80.07422;939.9856;;;;
2023/04/17 12:44:04;;;;;;;2.6;2.4;;;;;;;9.85;80.26367;939.9417;;;;
2023/04/17 12:46:30;;;;;;;2.9;2.7;;;;;;;10;80.55469;939.9249;;;;
2023/04/17 12:48:58;;;;;;;2.8;2.6;;;;;;;10.17;80.76855;939.9504;;;;
2023/04/17 12:51:20;;;;;;;2.6;2.4;;;;;;;10.25;80.37109;939.9632;;;;
2023/04/17 12:53:47;;;;;;;2.5;2.3;;;;;;;10.42;80.02637;939.9553;;;;
2023/04/17 12:56:12;;;;;;;2.4;2.2;;;;;;;10.45;78.11523;939.9598;;;;
2023/04/17 12:58:37;;;;;;;2.7;2.4;;;;;;;10.34;79.19043;939.9111;;;;
2023/04/17 13:01:02;;;;;;;2.6;2.4;;;;;;;10.43;78.36328;939.8967;;;;
2023/04/17 13:03:32;;;;;;;2.6;2.4;;;;;;;10.61;77.19531;939.9429;;;;
2023/04/17 13:05:57;;;;;;;2.6;2.4;;;;;;;10.89;77.55371;939.7981;;;;
2023/04/17 13:08:22;;;;;;;2.6;2.4;;;;;;;10.98;76.67871;939.8803;;;;
2023/04/17 13:10:47;;;;;;;2.5;2.3;;;;;;;11.09;75.29297;939.8594;;;;
2023/04/17 13:13:14;;;;;;;2.4;2.2;;;;;;;11.32;73.94824;939.783;;;;
2023/04/17 13:15:39;;;;;;;2.2;2;;;;;;;11.33;74.23633;939.795;;;;
2023/04/17 13:18:06;;;;;;;2.1;2;;;;;;;11.54;73.11621;939.8306;;;;
2023/04/17 13:20:30;;;;;;;2.3;2.1;;;;;;;11.85;72.11523;939.7604;;;;
2023/04/17 13:22:57;;;;;;;2;1.9;;;;;;;12.09;69.9541;939.6895;;;;
2023/04/17 13:25:22;;;;;;;2.1;1.9;;;;;;;12.46;69.78516;939.7352;;;;
2023/04/17 13:27:49;;;;;;;1.9;1.8;;;;;;;12.93;67.63281;939.6047;;;;
2023/04/17 13:30:14;;;;;;;1.8;1.7;;;;;;;13.44;66.47168;939.5955;;;;
2023/04/17 13:32:41;;;;;;;2.3;2.1;;;;;;;14.08;64.08301;939.5695;;;;
2023/04/17 13:35:07;;;;;;;2;1.9;;;;;;;14.37;62.23633;939.5233;;;;
2023/04/17 13:37:34;;;;;;;1.9;1.8;;;;;;;14.44;61.89941;939.5276;;;;
2023/04/17 13:40:02;;;;;;;1.9;1.8;;;;;;;13.93;61.125;939.4878;;;;
2023/04/17 13:42:24;;;;;;;2.1;1.9;;;;;;;14.12;61.30371;939.5285;;;;
2023/04/17 13:44:50;;;;;;;2;1.9;;;;;;;14.2;61.3252;939.4811;;;;
2023/04/17 13:47:15;;;;;;;2.3;2.1;;;;;;;14.46;61.37207;939.5051;;;;
2023/04/17 13:49:40;;;;;;;1.8;1.7;;;;;;;14.12;62.33887;939.4196;;;;
2023/04/17 13:52:05;;;;;;;2.4;2.1;;;;;;;13.95;63.68359;939.4317;;;;
2023/04/17 13:54:30;;;;;;;2.3;2.1;;;;;;;13.91;64.10254;939.3997;;;;
2023/04/17 13:56:58;;;;;;;1.5;1.4;;;;;;;14.39;62.2041;939.3823;;;;
2023/04/17 13:59:23;;;;;;;1.8;1.7;;;;;;;13.91;62.1709;939.3292;;;;
2023/04/17 14:01:48;;;;;;;1.8;1.7;;;;;;;14.28;61.3252;939.3553;;;;
2023/04/17 14:04:14;;;;;;;1.7;1.6;;;;;;;14.45;60.96875;939.2857;;;;
2023/04/17 14:06:39;;;;;;;1.8;1.7;;;;;;;14.38;60.39453;939.3334;;;;
2023/04/17 14:09:04;;;;;;;1.9;1.7;;;;;;;14.12;61.22266;939.2922;;;;
2023/04/17 14:11:31;;;;;;;2;1.9;;;;;;;14.11;61.73828;939.2827;;;;
2023/04/17 14:13:56;;;;;;;2;1.8;;;;;;;14.12;61.66016;939.2419;;;;
2023/04/17 14:16:23;;;;;;;2;1.9;;;;;;;13.81;62.8584;939.197;;;;
2023/04/17 14:18:49;;;;;;;1.9;1.8;;;;;;;12.92;65.32422;939.233;;;;
2023/04/17 14:21:14;;;;;;;2;1.8;;;;;;;12.73;64.97461;939.2043;;;;
2023/04/17 14:23:39;;;;;;;2.3;1.9;;;;;;;12.51;66.01953;939.2186;;;;
2023/04/17 14:26:07;;;;;;;1.9;1.8;;;;;;;12.39;66.93066;939.2203;;;;
2023/04/17 14:28:32;;;;;;;2;1.9;;;;;;;11.81;68.35352;939.1912;;;;
2023/04/17 14:30:59;;;;;;;2.2;2;;;;;;;11.83;69.82031;939.2559;;;;
2023/04/17 14:33:24;;;;;;;2.3;2.1;;;;;;;11.82;70.12793;939.236;;;;
2023/04/17 14:35:52;;;;;;;1.7;1.6;;;;;;;11.48;71.66309;939.1802;;;;
2023/04/17 14:38:16;;;;;;;1.9;1.8;;;;;;;11.28;71.89355;939.2748;;;;
2023/04/17 14:40:41;;;;;;;1.8;1.7;;;;;;;11.15;71.73535;939.2367;;;;
2023/04/17 14:43:07;;;;;;;2;1.9;;;;;;;10.9;74.12891;939.2653;;;;
2023/04/17 14:45:35;;;;;;;2.1;1.9;;;;;;;10.8;74.21484;939.2656;;;;
2023/04/17 14:47:59;;;;;;;2;1.8;;;;;;;10.95;73.69141;939.2537;;;;
2023/04/17 14:50:27;;;;;;;1.9;1.8;;;;;;;11.01;74.66016;939.2933;;;;
2023/04/17 14:52:54;;;;;;;2.1;2;;;;;;;11.2;74.05273;939.281;;;;
2023/04/17 14:55:22;;;;;;;1.9;1.8;;;;;;;11.3;72.14941;939.283;;;;
2023/04/17 14:57:47;;;;;;;2;1.8;;;;;;;11.2;72.66895;939.1965;;;;
2023/04/17 15:00:12;;;;;;;2.3;2.1;;;;;;;11.29;73.22363;939.2374;;;;
2023/04/17 15:02:38;;;;;;;2;1.9;;;;;;;11.35;72.25977;939.19;;;;
2023/04/17 15:05:06;;;;;;;2.1;1.9;;;;;;;11.42;72.24902;939.0936;;;;
2023/04/17 15:07:31;;;;;;;2.2;2;;;;;;;11.35;72.06543;939.1996;;;;
2023/04/17 15:09:56;;;;;;;2.4;2.1;;;;;;;11.44;71.33887;939.1217;;;;
2023/04/17 15:12:21;;;;;;;2.5;2.3;;;;;;;11.59;70.32129;939.0876;;;;
2023/04/17 15:14:47;;;;;;;2.4;2.2;;;;;;;11.7;70.55566;939.1788;;;;
2023/04/17 15:17:12;;;;;;;2;1.9;;;;;;;11.88;70.00098;939.1055;;;;
2023/04/17 15:19:40;;;;;;;3;2.7;;;;;;;12.02;69.24512;939.1297;;;;
2023/04/17 15:22:05;;;;;;;2.5;2.3;;;;;;;11.81;69.5332;939.0875;;;;
2023/04/17 15:24:32;;;;;;;2.9;2.7;;;;;;;12.09;69.51953;939.1875;;;;
2023/04/17 15:26:57;;;;;;;2.5;2.3;;;;;;;12.35;67.54297;939.165;;;;
2023/04/17 15:29:24;;;;;;;2.6;2.4;;;;;;;12.61;67.15918;939.1309;;;;
2023/04/17 15:31:51;;;;;;;2.5;2.3;;;;;;;12.79;67.23438;939.0958;;;;
2023/04/17 15:34:16;;;;;;;2;1.9;;;;;;;12.94;65.36133;939.0676;;;;
2023/04/17 15:36:41;;;;;;;4.2;2.5;;;;;;;12.61;67.74414;939.0959;;;;